Time;durP1;ratioP1;P1;durP2;ratioP2;P2;SDS_P1;SDS_P2;PMS_P1;PMS_P2;Temp;Humidity;BMP_temperature;BMP_pressure;BME280_temperature;BME280_humidity;BME280_pressure;Samples;Min_cycle;Max_cycle;Signal;HPM_P1;HPM_P2
2023/01/14 00:00:21;;;;;;;20.60;11.40;;;;;;;-141.97;100.00;47940.03;5036866;28;20633;-82
2023/01/14 00:02:47;;;;;;;21.83;11.50;;;;;;;-141.97;100.00;47865.06;5037130;28;20220;-82
2023/01/14 00:05:12;;;;;;;22.03;12.00;;;;;;;-141.97;100.00;47907.34;5036629;28;20182;-83
2023/01/14 00:07:38;;;;;;;19.80;11.47;;;;;;;-141.97;100.00;47863.13;5036675;28;20611;-83
2023/01/14 00:10:03;;;;;;;19.43;11.27;;;;;;;-141.97;100.00;47799.72;5037624;28;20166;-83
2023/01/14 00:12:30;;;;;;;20.63;11.03;;;;;;;-141.97;100.00;47811.25;5037008;28;20154;-82
2023/01/14 00:14:56;;;;;;;24.70;13.00;;;;;;;-141.97;100.00;47840.06;5021997;28;20225;-82
2023/01/14 00:17:21;;;;;;;25.40;13.17;;;;;;;-141.97;100.00;47851.59;5031201;28;20208;-82
2023/01/14 00:19:47;;;;;;;40.23;19.87;;;;;;;-141.97;100.00;47872.75;5032553;28;20622;-81
2023/01/14 00:22:12;;;;;;;22.90;12.07;;;;;;;-141.97;100.00;47847.75;5014144;28;20320;-82
2023/01/14 00:24:37;;;;;;;20.80;12.00;;;;;;;-141.97;100.00;47838.16;5031436;28;20201;-82
2023/01/14 00:27:03;;;;;;;24.43;12.60;;;;;;;-141.97;100.00;47734.34;5030626;28;20288;-82
2023/01/14 00:29:30;;;;;;;23.70;12.70;;;;;;;-141.97;100.00;47842.00;5031465;28;20166;-82
2023/01/14 00:31:58;;;;;;;24.07;12.80;;;;;;;-141.97;100.00;47784.34;5032222;28;20536;-82
2023/01/14 00:34:26;;;;;;;32.60;15.63;;;;;;;-141.97;100.00;47845.84;5031037;28;20162;-82
2023/01/14 00:36:52;;;;;;;25.80;12.67;;;;;;;-141.97;100.00;47930.41;5030688;28;20261;-82
2023/01/14 00:39:17;;;;;;;23.63;11.53;;;;;;;-141.97;100.00;47853.53;5030862;28;20173;-82
2023/01/14 00:41:43;;;;;;;22.60;11.93;;;;;;;-141.97;100.00;47842.00;5030904;28;20642;-82
2023/01/14 00:44:09;;;;;;;21.63;11.67;;;;;;;-141.97;100.00;47820.84;5031479;28;20224;-83
2023/01/14 00:46:36;;;;;;;25.13;13.30;;;;;;;-141.97;100.00;47842.00;5030425;28;20280;-84
2023/01/14 00:49:04;;;;;;;26.97;13.30;;;;;;;-141.97;100.00;47849.69;5016095;28;20176;-81
2023/01/14 00:51:31;;;;;;;25.67;12.87;;;;;;;-141.97;100.00;47895.81;5032051;28;20162;-83
2023/01/14 00:53:57;;;;;;;23.97;12.60;;;;;;;-141.97;100.00;47861.22;5030756;28;20284;-83
2023/01/14 00:56:23;;;;;;;25.27;12.57;;;;;;;-141.97;100.00;47826.63;5029718;28;20174;-83
2023/01/14 00:58:49;;;;;;;27.10;13.40;;;;;;;-141.97;100.00;47861.22;5032791;28;20623;-83
2023/01/14 01:01:15;;;;;;;28.87;15.23;;;;;;;-141.97;100.00;47851.59;5014303;28;20217;-83
2023/01/14 01:03:44;;;;;;;26.80;14.20;;;;;;;-141.97;100.00;47861.22;5002758;28;20631;-82
2023/01/14 01:06:11;;;;;;;27.27;13.67;;;;;;;-141.97;100.00;47884.28;5019798;28;20256;-83
2023/01/14 01:08:36;;;;;;;28.57;13.70;;;;;;;-141.97;100.00;47849.69;5017072;28;20273;-83
2023/01/14 01:11:02;;;;;;;25.77;13.10;;;;;;;-141.97;100.00;47915.03;5014792;28;20165;-83
2023/01/14 01:13:28;;;;;;;27.50;13.73;;;;;;;-141.97;100.00;47778.56;5014491;28;20336;-84
2023/01/14 01:15:59;;;;;;;27.27;14.90;;;;;;;-141.97;100.00;47843.91;5014354;28;20187;-84
2023/01/14 01:18:26;;;;;;;32.17;16.53;;;;;;;-141.97;100.00;47897.75;5014498;28;20206;-84
2023/01/14 01:20:59;;;;;;;31.37;16.60;;;;;;;-141.97;100.00;47838.16;5014273;28;20167;-83
2023/01/14 01:23:24;;;;;;;24.37;13.73;;;;;;;-141.97;100.00;47845.84;5014268;28;20166;-83
2023/01/14 01:25:58;;;;;;;26.30;13.77;;;;;;;-141.97;100.00;47826.63;5014129;28;20190;-83
2023/01/14 01:28:23;;;;;;;23.87;13.17;;;;;;;-141.97;100.00;47813.16;5014168;28;20194;-83
2023/01/14 01:30:49;;;;;;;24.97;13.03;;;;;;;-141.97;100.00;47897.75;5014043;28;20270;-83
2023/01/14 01:33:14;;;;;;;23.70;13.03;;;;;;;-141.97;100.00;47849.69;5014351;28;20286;-83
2023/01/14 01:35:39;;;;;;;25.17;13.77;;;;;;;-141.97;100.00;47870.81;4996315;28;20201;-83
2023/01/14 01:38:05;;;;;;;22.90;13.43;;;;;;;-141.97;100.00;47851.59;5014590;28;20228;-84
2023/01/14 01:40:30;;;;;;;24.60;13.50;;;;;;;-141.97;100.00;47838.16;4996462;28;20178;-83
2023/01/14 01:42:56;;;;;;;26.67;13.97;;;;;;;-141.97;100.00;47866.97;5013803;28;20228;-83
2023/01/14 01:45:46;;;;;;;28.50;14.50;;;;;;;-141.97;100.00;47822.78;5013754;28;20201;-83
2023/01/14 01:48:36;;;;;;;189.63;85.73;;;;;;;-141.97;100.00;47849.69;4996419;28;20552;-83
2023/01/14 01:51:05;;;;;;;82.40;38.97;;;;;;;-141.97;100.00;47853.53;5013539;28;20166;-83
2023/01/14 01:53:34;;;;;;;60.40;31.33;;;;;;;-141.97;100.00;47849.69;4996128;28;20226;-83
2023/01/14 01:56:01;;;;;;;37.20;20.00;;;;;;;-141.97;100.00;47817.00;5014577;28;20590;-84
2023/01/14 01:58:27;;;;;;;46.30;22.67;;;;;;;-141.97;100.00;47855.44;5013821;28;20199;-84
2023/01/14 02:00:53;;;;;;;68.70;34.47;;;;;;;-141.97;100.00;47863.13;5013793;28;20159;-83
2023/01/14 02:03:51;;;;;;;35.50;18.33;;;;;;;-141.97;100.00;47853.53;5013630;28;20642;-83
2023/01/14 02:06:17;;;;;;;33.70;17.40;;;;;;;-141.97;100.00;47826.63;4960559;29;20301;-83
2023/01/14 02:08:48;;;;;;;32.40;16.63;;;;;;;-141.97;100.00;47884.28;4952997;28;20169;-83
2023/01/14 02:11:16;;;;;;;33.37;16.60;;;;;;;-141.97;100.00;47857.38;4966519;29;20164;-83
2023/01/14 02:14:09;;;;;;;27.90;15.00;;;;;;;-141.97;100.00;47845.84;4956617;29;20172;-83
2023/01/14 02:16:40;;;;;;;28.33;15.23;;;;;;;-141.97;100.00;47882.38;4952719;28;20189;-83
2023/01/14 02:19:14;;;;;;;28.53;15.23;;;;;;;-141.97;100.00;47868.91;4953017;29;20168;-83
2023/01/14 02:21:46;;;;;;;30.20;15.83;;;;;;;-141.97;100.00;47855.44;4953010;28;20332;-83
2023/01/14 02:24:38;;;;;;;27.27;15.10;;;;;;;-141.97;100.00;47866.97;4953059;29;20196;-83
2023/01/14 02:27:25;;;;;;;29.20;15.67;;;;;;;-141.97;100.00;47853.53;4952546;29;20263;-83
2023/01/14 02:30:00;;;;;;;25.93;14.37;;;;;;;-141.97;100.00;47845.84;4952624;29;20212;-84
2023/01/14 02:32:30;;;;;;;31.53;15.67;;;;;;;-141.97;100.00;47849.69;4952677;29;20215;-84
2023/01/14 02:35:11;;;;;;;29.73;15.93;;;;;;;-141.97;100.00;47834.31;4952899;29;20193;-84
2023/01/14 02:38:03;;;;;;;30.70;15.10;;;;;;;-141.97;100.00;47903.50;4952535;29;20221;-84
2023/01/14 02:40:51;;;;;;;29.80;15.17;;;;;;;-141.97;100.00;47849.69;4958692;29;20302;-84
2023/01/14 02:46:43;;;;;;;29.37;15.77;;;;;;;-141.97;100.00;47884.28;5012519;28;20272;-84
2023/01/14 02:49:13;;;;;;;37.57;20.30;;;;;;;-141.97;100.00;47870.81;5012545;28;20163;-84
2023/01/14 02:51:39;;;;;;;35.90;18.70;;;;;;;-141.97;100.00;47799.72;5012676;28;20166;-84
2023/01/14 02:54:04;;;;;;;39.73;19.57;;;;;;;-141.97;100.00;47711.28;5012648;28;20795;-84
2023/01/14 02:56:31;;;;;;;37.87;19.70;;;;;;;-141.97;100.00;47849.69;5015815;28;20634;-84
2023/01/14 02:59:35;;;;;;;46.30;21.73;;;;;;;-141.97;100.00;47903.50;5025314;28;20166;-84
2023/01/14 03:02:29;;;;;;;42.50;21.10;;;;;;;-141.97;100.00;47859.28;5030376;28;20163;-83
2023/01/14 03:05:28;;;;;;;43.93;21.87;;;;;;;-141.97;100.00;47838.16;5021489;28;20201;-84
2023/01/14 03:08:10;;;;;;;42.13;21.80;;;;;;;-141.97;100.00;47845.84;5021662;28;20409;-84
2023/01/14 03:11:06;;;;;;;49.73;21.37;;;;;;;-141.97;100.00;47863.13;5017742;28;20421;-84
2023/01/14 03:14:01;;;;;;;48.93;24.67;;;;;;;-141.97;100.00;47857.38;4952703;29;20190;-84
2023/01/14 03:16:33;;;;;;;55.93;27.60;;;;;;;-141.97;100.00;47880.44;4952999;28;20189;-84
2023/01/14 03:19:24;;;;;;;56.27;27.37;;;;;;;-141.97;100.00;47851.59;4954286;29;20236;-84
2023/01/14 03:21:53;;;;;;;80.43;43.40;;;;;;;-141.97;100.00;47876.59;4953428;29;20169;-84
2023/01/14 03:24:44;;;;;;;66.40;36.73;;;;;;;-141.97;100.00;47828.53;4952849;29;20197;-84
2023/01/14 03:27:23;;;;;;;57.67;29.17;;;;;;;-141.97;100.00;47903.50;4898127;29;20200;-84
2023/01/14 03:29:53;;;;;;;51.47;26.00;;;;;;;-141.97;100.00;47851.59;4898789;29;20187;-84
2023/01/14 03:32:24;;;;;;;51.90;25.43;;;;;;;-141.97;100.00;47882.38;4903825;29;20226;-84
2023/01/14 03:35:05;;;;;;;51.77;26.23;;;;;;;-141.97;100.00;47845.84;4902672;29;20280;-85
2023/01/14 03:37:31;;;;;;;54.47;24.90;;;;;;;-141.97;100.00;47872.75;4899244;29;20203;-84
2023/01/14 03:40:01;;;;;;;51.60;25.67;;;;;;;-141.97;100.00;47851.59;4898515;29;20177;-84
2023/01/14 03:42:32;;;;;;;52.30;25.37;;;;;;;-141.97;100.00;47726.66;4895270;29;20174;-84
2023/01/14 03:45:30;;;;;;;50.17;24.27;;;;;;;-141.97;100.00;47842.00;4895743;29;20290;-84
2023/01/14 03:47:56;;;;;;;49.83;24.43;;;;;;;-141.97;100.00;47903.50;4842042;29;20211;-84
2023/01/14 03:50:29;;;;;;;47.23;23.50;;;;;;;-141.97;100.00;47884.28;4910497;29;20196;-85
2023/01/14 03:53:07;;;;;;;52.00;25.27;;;;;;;-141.97;100.00;47863.13;4931944;29;20200;-84
2023/01/14 03:55:50;;;;;;;53.27;25.27;;;;;;;-141.97;100.00;47824.69;4932319;29;20240;-84
2023/01/14 03:58:33;;;;;;;55.30;26.60;;;;;;;-141.97;100.00;47863.13;4932581;29;20284;-84
2023/01/14 04:01:06;;;;;;;60.23;26.33;;;;;;;-141.97;100.00;47828.53;4932151;29;20170;-84
2023/01/14 04:03:33;;;;;;;59.63;26.30;;;;;;;-141.97;100.00;47953.50;4951034;28;20278;-84
2023/01/14 04:05:59;;;;;;;61.73;25.23;;;;;;;-141.97;100.00;47861.22;4989657;28;20211;-83
2023/01/14 04:08:25;;;;;;;66.30;26.43;;;;;;;-141.97;100.00;47851.59;4990025;28;20626;-85
2023/01/14 04:10:51;;;;;;;64.60;25.37;;;;;;;-141.97;100.00;47830.47;4989843;28;20234;-83
2023/01/14 04:16:01;;;;;;;57.83;24.73;;;;;;;-141.97;100.00;47899.66;4989972;28;20216;-84
2023/01/14 04:18:27;;;;;;;58.50;25.37;;;;;;;-141.97;100.00;47861.22;4989491;28;20659;-83
2023/01/14 04:20:52;;;;;;;55.80;24.13;;;;;;;-141.97;100.00;47886.22;4989704;28;20170;-84
2023/01/14 04:23:18;;;;;;;52.63;22.97;;;;;;;-141.97;100.00;47872.75;4995000;28;20628;-84
2023/01/14 04:25:43;;;;;;;49.07;23.17;;;;;;;-141.97;100.00;47865.06;5031323;28;20577;-84
2023/01/14 04:28:09;;;;;;;55.90;24.47;;;;;;;-141.97;100.00;47734.34;5030869;28;20166;-83
2023/01/14 04:30:35;;;;;;;54.03;23.20;;;;;;;-141.97;100.00;47890.06;5031210;28;20170;-84
2023/01/14 04:33:00;;;;;;;58.27;24.50;;;;;;;-141.97;100.00;47868.91;5031250;28;20170;-84
2023/01/14 04:35:25;;;;;;;66.77;28.87;;;;;;;-141.97;100.00;47922.72;5030791;28;20166;-84
2023/01/14 04:37:54;;;;;;;67.30;28.30;;;;;;;-141.97;100.00;47895.81;5031154;28;20204;-84
2023/01/14 04:40:20;;;;;;;60.53;25.53;;;;;;;-141.97;100.00;47865.06;5032316;28;20158;-83
2023/01/14 04:42:45;;;;;;;60.30;24.80;;;;;;;-141.97;100.00;47842.00;5034526;28;20300;-84
2023/01/14 04:45:11;;;;;;;70.20;25.20;;;;;;;-141.97;100.00;47830.47;5034636;28;20576;-84
2023/01/14 04:47:38;;;;;;;71.23;26.20;;;;;;;-141.97;100.00;47851.59;5034509;28;20239;-84
2023/01/14 04:50:30;;;;;;;75.80;28.03;;;;;;;-141.97;100.00;47826.63;5034628;28;20670;-84
2023/01/14 04:52:50;;;;;;;77.43;26.80;;;;;;;-141.97;100.00;47893.91;5034586;28;20405;-84
2023/01/14 04:55:15;;;;;;;79.53;29.73;;;;;;;-141.97;100.00;47855.44;5034045;28;20471;-84
2023/01/14 04:57:41;;;;;;;79.30;31.07;;;;;;;-141.97;100.00;47845.84;5034002;28;20163;-84
2023/01/14 05:00:09;;;;;;;83.33;28.90;;;;;;;-141.97;100.00;47861.22;5034970;28;20243;-84
2023/01/14 05:02:35;;;;;;;93.30;33.43;;;;;;;-141.97;100.00;47845.84;5040557;28;20170;-84
2023/01/14 05:05:00;;;;;;;97.63;34.47;;;;;;;-141.97;100.00;47884.28;5036649;28;20924;-84
2023/01/14 05:07:26;;;;;;;98.20;31.33;;;;;;;-141.97;100.00;47851.59;5034607;28;20177;-85
2023/01/14 05:09:51;;;;;;;91.97;31.73;;;;;;;-141.97;100.00;47826.63;5034140;28;20239;-85
2023/01/14 05:12:16;;;;;;;91.67;30.47;;;;;;;-141.97;100.00;47849.69;5033930;28;20177;-85
2023/01/14 05:14:42;;;;;;;87.53;29.50;;;;;;;-141.97;100.00;47876.59;5034139;28;20527;-85
2023/01/14 05:17:07;;;;;;;89.33;30.63;;;;;;;-141.97;100.00;47836.22;5033947;28;20166;-86
2023/01/14 05:19:32;;;;;;;96.77;27.83;;;;;;;-141.97;100.00;47882.38;5033813;28;20162;-86
2023/01/14 05:21:58;;;;;;;80.60;28.53;;;;;;;-141.97;100.00;47934.25;5033814;28;20553;-85
2023/01/14 05:24:23;;;;;;;78.17;26.93;;;;;;;-141.97;100.00;47953.50;5034327;28;20172;-85
2023/01/14 05:26:48;;;;;;;91.47;26.97;;;;;;;-141.97;100.00;47865.06;5034210;28;20190;-85
2023/01/14 05:29:14;;;;;;;87.33;26.40;;;;;;;-141.97;100.00;47903.50;5034186;28;20192;-83
2023/01/14 05:31:39;;;;;;;98.07;27.10;;;;;;;-141.97;100.00;47826.63;5033859;28;20166;-84
2023/01/14 05:34:05;;;;;;;94.50;27.20;;;;;;;-141.97;100.00;47866.97;5033980;28;20166;-83
2023/01/14 05:36:30;;;;;;;118.23;28.47;;;;;;;-141.97;100.00;47865.06;5033919;28;20246;-83
2023/01/14 05:38:56;;;;;;;99.97;29.53;;;;;;;-141.97;100.00;47926.56;5034282;28;20166;-83
2023/01/14 05:41:21;;;;;;;97.80;26.70;;;;;;;-141.97;100.00;47861.22;5033689;28;20246;-83
2023/01/14 05:46:30;;;;;;;101.70;25.87;;;;;;;-141.97;100.00;47834.31;5033974;28;20197;-83
2023/01/14 05:48:56;;;;;;;96.63;26.23;;;;;;;-141.97;100.00;47845.84;5033701;28;20404;-84
2023/01/14 05:51:21;;;;;;;99.87;28.00;;;;;;;-141.97;100.00;47888.13;5033107;28;20272;-85
2023/01/14 05:53:47;;;;;;;105.03;28.87;;;;;;;-141.97;100.00;47911.19;5032850;28;20271;-83
2023/01/14 05:56:12;;;;;;;151.53;29.33;;;;;;;-141.97;100.00;47880.44;5036062;28;20165;-83
2023/01/14 05:58:37;;;;;;;151.50;31.00;;;;;;;-141.97;100.00;47842.00;5044303;28;20547;-83
2023/01/14 06:06:47;;;;;;;135.30;33.53;;;;;;;-141.97;100.00;47876.59;5046501;28;20860;-83
2023/01/14 06:09:14;;;;;;;106.07;30.30;;;;;;;-141.97;100.00;47882.38;5047785;28;20407;-83
2023/01/14 06:11:40;;;;;;;112.17;34.23;;;;;;;-141.97;100.00;47861.22;5047741;28;20511;-83
2023/01/14 06:14:05;;;;;;;110.57;34.03;;;;;;;-141.97;100.00;47849.69;5047112;28;20423;-83
2023/01/14 06:16:39;;;;;;;124.93;29.43;;;;;;;-141.97;100.00;47870.81;5046802;28;20173;-83
2023/01/14 06:19:09;;;;;;;126.77;35.10;;;;;;;-141.97;100.00;47897.75;5027339;28;20162;-84
2023/01/14 06:21:35;;;;;;;103.43;29.43;;;;;;;-141.97;100.00;47849.69;5043727;28;20635;-84
2023/01/14 06:24:01;;;;;;;103.10;28.03;;;;;;;-141.97;100.00;47830.47;5043550;28;20200;-84
2023/01/14 06:26:27;;;;;;;94.47;27.37;;;;;;;-141.97;100.00;47815.09;5042980;28;20216;-85
2023/01/14 06:29:00;;;;;;;98.43;28.70;;;;;;;-141.97;100.00;47845.84;5045155;28;20222;-84
2023/01/14 06:31:26;;;;;;;96.30;31.13;;;;;;;-141.97;100.00;47847.75;5047265;28;20182;-83
2023/01/14 06:33:51;;;;;;;105.83;36.13;;;;;;;-141.97;100.00;47866.97;5046800;28;20166;-83
2023/01/14 06:36:17;;;;;;;94.80;30.63;;;;;;;-141.97;100.00;47868.91;5044829;28;20176;-83
2023/01/14 06:38:42;;;;;;;97.13;28.40;;;;;;;-141.97;100.00;47863.13;5044953;28;20162;-84
2023/01/14 06:41:10;;;;;;;125.47;39.10;;;;;;;-141.97;100.00;47886.22;5046456;28;20162;-83
2023/01/14 06:43:36;;;;;;;94.97;31.03;;;;;;;-141.97;100.00;47884.28;5045202;28;20163;-84
2023/01/14 06:46:02;;;;;;;100.87;32.27;;;;;;;-141.97;100.00;47845.84;5044812;28;20212;-84
2023/01/14 06:48:28;;;;;;;106.43;35.03;;;;;;;-141.97;100.00;47845.84;5043722;28;20170;-84
2023/01/14 06:50:53;;;;;;;114.20;36.57;;;;;;;-141.97;100.00;47886.22;5042859;28;20212;-84
2023/01/14 06:53:19;;;;;;;103.60;29.53;;;;;;;-141.97;100.00;47876.59;5041699;28;20574;-84
2023/01/14 06:55:45;;;;;;;124.53;33.50;;;;;;;-141.97;100.00;47755.50;5041296;28;20162;-84
2023/01/14 06:58:11;;;;;;;119.57;32.17;;;;;;;-141.97;100.00;47855.44;5042728;28;20166;-84
2023/01/14 07:00:36;;;;;;;115.70;37.80;;;;;;;-141.97;100.00;47826.63;5042586;28;20265;-84
2023/01/14 07:03:02;;;;;;;126.33;41.53;;;;;;;-141.97;100.00;47803.56;5041976;28;20692;-84
2023/01/14 07:05:28;;;;;;;109.33;33.70;;;;;;;-141.97;100.00;47949.66;5050847;28;20217;-84
2023/01/14 07:07:53;;;;;;;114.90;36.33;;;;;;;-141.97;100.00;47907.34;5040237;28;20173;-84
2023/01/14 07:10:19;;;;;;;118.83;36.87;;;;;;;-141.97;100.00;47878.53;5040402;28;20193;-84
2023/01/14 07:12:49;;;;;;;112.03;32.93;;;;;;;-141.97;100.00;47903.50;5023106;28;20212;-84
2023/01/14 07:15:16;;;;;;;98.63;29.47;;;;;;;-141.97;100.00;47884.28;5040810;28;20198;-84
2023/01/14 07:17:42;;;;;;;97.03;28.97;;;;;;;-141.97;100.00;47872.75;5037733;28;20404;-84
2023/01/14 07:20:09;;;;;;;100.50;32.90;;;;;;;-141.97;100.00;47872.75;5020246;28;20177;-84
2023/01/14 07:22:34;;;;;;;94.93;27.47;;;;;;;-141.97;100.00;47807.41;5020747;28;20197;-84
2023/01/14 07:25:02;;;;;;;90.70;25.13;;;;;;;-141.97;100.00;47888.13;5038306;28;20225;-84
2023/01/14 07:27:29;;;;;;;109.73;35.10;;;;;;;-141.97;100.00;47907.34;5038600;28;20170;-84
2023/01/14 07:29:54;;;;;;;88.50;29.63;;;;;;;-141.97;100.00;47905.44;5025433;28;20238;-84
2023/01/14 07:32:20;;;;;;;96.63;34.57;;;;;;;-141.97;100.00;47811.25;5024389;28;20174;-84
2023/01/14 07:34:45;;;;;;;94.20;29.70;;;;;;;-141.97;100.00;47757.41;5036752;28;20531;-84
2023/01/14 07:37:10;;;;;;;87.67;27.30;;;;;;;-141.97;100.00;47836.22;5017437;28;20173;-83
2023/01/14 07:39:36;;;;;;;93.53;31.00;;;;;;;-141.97;100.00;47743.97;5035674;28;20250;-84
2023/01/14 07:42:01;;;;;;;71.83;22.80;;;;;;;-141.97;100.00;47953.50;5037680;28;20169;-83
2023/01/14 07:44:27;;;;;;;69.17;22.63;;;;;;;-141.97;100.00;47884.28;5037699;28;20259;-85
2023/01/14 07:46:53;;;;;;;76.87;26.90;;;;;;;-141.97;100.00;47897.75;5043083;28;20249;-83
2023/01/14 07:49:20;;;;;;;88.00;33.77;;;;;;;-141.97;100.00;47851.59;5040477;28;20166;-83
2023/01/14 07:51:46;;;;;;;93.80;34.20;;;;;;;-141.97;100.00;47861.22;5040453;28;20185;-83
2023/01/14 07:54:11;;;;;;;105.90;38.40;;;;;;;-141.97;100.00;47855.44;5037841;28;20244;-83
2023/01/14 07:56:36;;;;;;;88.33;34.60;;;;;;;-141.97;100.00;47880.44;5034921;28;20162;-84
2023/01/14 07:59:02;;;;;;;140.73;56.87;;;;;;;-141.97;100.00;47876.59;5033248;28;20173;-84
2023/01/14 08:01:27;;;;;;;254.67;106.90;;;;;;;-141.97;100.00;47859.28;5036449;28;20595;-84
2023/01/14 08:03:53;;;;;;;121.60;48.27;;;;;;;-141.97;100.00;47797.78;5038447;28;20208;-83
2023/01/14 08:06:18;;;;;;;123.87;48.67;;;;;;;-141.97;100.00;47909.28;5028216;28;20193;-82
2023/01/14 08:08:43;;;;;;;139.80;57.40;;;;;;;-141.97;100.00;47861.22;5038528;28;20166;-83
2023/01/14 08:11:09;;;;;;;108.00;42.97;;;;;;;-141.97;100.00;47940.03;5037130;28;20266;-83
2023/01/14 08:13:35;;;;;;;96.00;39.47;;;;;;;-141.97;100.00;47868.91;5036241;28;20237;-83
2023/01/14 08:16:02;;;;;;;101.50;37.90;;;;;;;-141.97;100.00;47863.13;5039646;28;20169;-84
2023/01/14 08:18:29;;;;;;;88.13;35.73;;;;;;;-141.97;100.00;47822.78;5041249;28;20182;-83
2023/01/14 08:21:05;;;;;;;85.03;32.40;;;;;;;-141.97;100.00;47863.13;5040258;28;20225;-83
2023/01/14 08:23:32;;;;;;;60.57;24.77;;;;;;;-141.97;100.00;47865.06;5039877;28;20610;-83
2023/01/14 08:26:05;;;;;;;65.97;23.33;;;;;;;-141.97;100.00;47893.91;5049232;28;20189;-84
2023/01/14 08:28:32;;;;;;;112.37;38.47;;;;;;;-141.97;100.00;47803.56;5053087;28;20189;-83
2023/01/14 08:31:04;;;;;;;79.80;29.73;;;;;;;-141.97;100.00;47880.44;5045424;28;20596;-83
2023/01/14 08:33:30;;;;;;;109.47;33.90;;;;;;;-141.97;100.00;47872.75;5043045;28;20169;-83
2023/01/14 08:36:00;;;;;;;76.33;25.60;;;;;;;-141.97;100.00;47832.38;5044467;28;20169;-83
2023/01/14 08:38:25;;;;;;;69.50;25.17;;;;;;;-141.97;100.00;47907.34;5041295;28;20163;-84
2023/01/14 08:40:51;;;;;;;87.73;31.57;;;;;;;-141.97;100.00;47699.75;5040366;28;20656;-83
2023/01/14 08:43:17;;;;;;;72.07;26.93;;;;;;;-141.97;100.00;47840.06;5018677;28;20163;-83
2023/01/14 08:45:42;;;;;;;67.43;26.83;;;;;;;-141.97;100.00;47870.81;5016692;28;20580;-84
2023/01/14 08:48:08;;;;;;;72.37;27.30;;;;;;;-141.97;100.00;47849.69;5013843;28;20193;-84
2023/01/14 08:50:33;;;;;;;84.80;33.23;;;;;;;-141.97;100.00;47820.84;5015073;28;20175;-84
2023/01/14 08:52:58;;;;;;;89.23;34.30;;;;;;;-141.97;100.00;47845.84;5014871;28;20674;-84
2023/01/14 08:55:24;;;;;;;84.47;33.80;;;;;;;-141.97;100.00;47872.75;5014684;28;20170;-83
2023/01/14 08:57:50;;;;;;;94.33;35.60;;;;;;;-141.97;100.00;47843.91;5015208;28;20247;-85
2023/01/14 09:00:16;;;;;;;86.13;32.37;;;;;;;-141.97;100.00;47792.03;5015630;28;20197;-85
2023/01/14 09:02:41;;;;;;;93.97;35.17;;;;;;;-141.97;100.00;47872.75;5016634;28;20612;-85
2023/01/14 09:05:07;;;;;;;84.67;34.10;;;;;;;-141.97;100.00;47872.75;5017886;28;20233;-87
2023/01/14 09:18:28;;;;;;;84.20;32.93;;;;;;;-141.97;100.00;47849.69;5015814;28;20268;-88
2023/01/14 09:20:53;;;;;;;73.30;29.67;;;;;;;-141.97;99.30;47845.84;5003750;28;20658;-89
2023/01/14 09:23:19;;;;;;;73.43;29.20;;;;;;;-141.97;99.12;47888.13;5015818;28;20179;-87
2023/01/14 09:25:44;;;;;;;73.93;30.47;;;;;;;-141.97;98.53;47851.59;5013531;28;20210;-87
2023/01/14 09:28:10;;;;;;;67.00;28.73;;;;;;;-141.97;98.74;47799.72;5004457;28;20185;-87
2023/01/14 09:30:36;;;;;;;74.90;30.23;;;;;;;-141.97;98.87;47857.38;5009886;28;20155;-85
2023/01/14 09:33:04;;;;;;;67.50;29.33;;;;;;;-141.97;98.60;47880.44;5009860;28;20182;-85
2023/01/14 09:35:30;;;;;;;64.90;28.77;;;;;;;-141.97;98.46;47747.81;5033914;28;20177;-81
2023/01/14 09:37:56;;;;;;;69.07;29.23;;;;;;;-141.97;97.89;47830.47;5033873;28;20178;-84
2023/01/14 09:40:21;;;;;;;65.40;28.03;;;;;;;-141.97;97.69;47853.53;5024173;28;20234;-85
2023/01/14 09:42:49;;;;;;;73.40;28.60;;;;;;;-141.97;98.31;47742.03;5021585;28;20174;-85
2023/01/14 09:45:30;;;;;;;69.13;27.90;;;;;;;-141.97;97.94;47868.91;5015954;28;20222;-85
2023/01/14 09:48:14;;;;;;;63.07;27.37;;;;;;;-141.97;97.58;47811.25;5015649;28;20163;-85
2023/01/14 09:51:21;;;;;;;66.93;29.53;;;;;;;-141.97;97.18;47922.72;5004450;28;20182;-85
2023/01/14 09:54:27;;;;;;;67.40;28.77;;;;;;;-141.97;97.84;47865.06;4954031;28;20240;-85
2023/01/14 09:57:07;;;;;;;73.07;31.40;;;;;;;-141.97;97.16;47836.22;4878293;29;20198;-86
2023/01/14 09:59:57;;;;;;;75.40;32.97;;;;;;;-141.97;97.01;47818.94;4877927;29;20187;-86
2023/01/14 10:02:29;;;;;;;82.17;33.57;;;;;;;-141.97;96.19;47861.22;4878861;29;20206;-87
2023/01/14 10:04:59;;;;;;;82.93;36.40;;;;;;;-141.97;95.68;47842.00;4879658;29;20229;-85
2023/01/14 10:07:27;;;;;;;84.20;35.90;;;;;;;-141.97;94.67;47807.41;4883423;29;20206;-86
2023/01/14 10:09:56;;;;;;;93.33;40.33;;;;;;;-141.97;93.48;47832.38;4885782;29;20195;-87
2023/01/14 10:12:28;;;;;;;90.40;39.77;;;;;;;-141.97;93.17;47861.22;4887566;29;20195;-87
2023/01/14 10:15:18;;;;;;;91.93;39.93;;;;;;;-141.97;93.16;47861.22;4882364;29;20366;-85
2023/01/14 10:17:50;;;;;;;97.50;41.73;;;;;;;-141.97;93.26;47749.72;4877832;29;20230;-85
2023/01/14 10:20:27;;;;;;;103.50;44.77;;;;;;;-141.97;93.77;47857.38;4877442;29;20191;-85
2023/01/14 10:23:02;;;;;;;95.10;42.57;;;;;;;-141.97;93.71;47817.00;4878572;29;20223;-85
2023/01/14 10:25:28;;;;;;;107.20;46.30;;;;;;;-141.97;93.43;47861.22;4880128;29;20207;-85
2023/01/14 10:27:59;;;;;;;101.43;43.77;;;;;;;-141.97;92.88;47851.59;4878240;29;20217;-85
2023/01/14 10:30:24;;;;;;;95.30;41.70;;;;;;;-141.97;93.55;47836.22;4918324;29;20753;-87
2023/01/14 10:32:52;;;;;;;99.40;43.37;;;;;;;-141.97;94.08;47922.72;4939424;28;20173;-86
2023/01/14 10:35:31;;;;;;;102.03;45.43;;;;;;;-141.97;94.06;47880.44;5024339;28;20162;-87
2023/01/14 10:37:58;;;;;;;118.00;55.30;;;;;;;-141.97;93.48;47851.59;5025910;28;20677;-88
2023/01/14 10:40:26;;;;;;;95.47;40.70;;;;;;;-141.97;92.81;47838.16;5032135;28;20220;-86
2023/01/14 10:42:57;;;;;;;88.90;41.27;;;;;;;-141.97;93.08;47911.19;5028867;28;20181;-87
2023/01/14 10:45:23;;;;;;;80.33;36.53;;;;;;;-141.97;93.16;47817.00;5032992;28;20218;-86
2023/01/14 10:47:53;;;;;;;81.67;36.43;;;;;;;-141.97;93.06;47838.16;5035313;28;20177;-85
2023/01/14 10:50:29;;;;;;;84.70;36.60;;;;;;;-141.97;92.94;47855.44;5034846;28;20257;-87
2023/01/14 10:53:12;;;;;;;94.47;41.10;;;;;;;-141.97;92.67;47866.97;5016938;28;20662;-86
2023/01/14 10:55:47;;;;;;;92.23;39.90;;;;;;;-141.97;93.43;47853.53;5017892;28;20201;-88
2023/01/14 10:58:16;;;;;;;87.50;38.40;;;;;;;-141.97;93.75;47799.72;5010546;28;20181;-85
2023/01/14 11:00:50;;;;;;;93.63;39.27;;;;;;;-141.97;93.37;47849.69;5037165;28;20668;-86
2023/01/14 11:03:27;;;;;;;93.03;39.33;;;;;;;-141.97;94.24;47822.78;5032796;28;20158;-86
2023/01/14 11:06:14;;;;;;;86.80;38.27;;;;;;;-141.97;96.04;47830.47;5018538;28;20198;-86
2023/01/14 11:08:46;;;;;;;93.60;38.73;;;;;;;-141.97;97.21;47930.41;5034711;28;20256;-85
2023/01/14 11:11:16;;;;;;;95.63;39.60;;;;;;;-141.97;97.73;47845.84;5027320;28;20170;-86
2023/01/14 11:13:44;;;;;;;99.13;40.73;;;;;;;-141.97;97.63;47857.38;5041804;28;20253;-87
2023/01/14 11:16:21;;;;;;;98.73;40.97;;;;;;;-141.97;97.98;47830.47;5036935;28;20170;-86
2023/01/14 11:19:00;;;;;;;100.53;40.57;;;;;;;-141.97;97.98;47888.13;5034992;28;20200;-85
2023/01/14 11:21:28;;;;;;;86.17;37.23;;;;;;;-141.97;97.45;47838.16;5033394;28;20169;-86
2023/01/14 11:24:24;;;;;;;88.37;37.80;;;;;;;-141.97;98.31;47853.53;5036980;28;20159;-86
2023/01/14 11:27:06;;;;;;;91.90;38.77;;;;;;;-141.97;99.23;47865.06;4940132;29;20283;-84
2023/01/14 11:29:35;;;;;;;94.63;39.80;;;;;;;-141.97;100.00;47805.47;4938658;29;20188;-87
2023/01/14 11:32:15;;;;;;;97.07;42.23;;;;;;;-141.97;99.73;47870.81;4935181;28;20208;-87